sensor_id;sensor_type;location;lat;lon;timestamp;temperature;humidity
10980;DHT22;5543;51.734;8.744;2022-09-02T00:01:33;15.00;78.40
10980;DHT22;5543;51.734;8.744;2022-09-02T00:04:05;15.00;76.70
10980;DHT22;5543;51.734;8.744;2022-09-02T00:06:35;15.00;76.30
10980;DHT22;5543;51.734;8.744;2022-09-02T00:09:04;15.00;76.70
10980;DHT22;5543;51.734;8.744;2022-09-02T00:11:34;15.00;77.00
10980;DHT22;5543;51.734;8.744;2022-09-02T00:14:07;15.00;76.60
10980;DHT22;5543;51.734;8.744;2022-09-02T00:16:37;15.00;75.20
10980;DHT22;5543;51.734;8.744;2022-09-02T00:19:05;15.10;76.90
10980;DHT22;5543;51.734;8.744;2022-09-02T00:21:35;15.10;76.70
10980;DHT22;5543;51.734;8.744;2022-09-02T00:24:05;15.20;76.00
10980;DHT22;5543;51.734;8.744;2022-09-02T00:26:33;15.10;76.80
10980;DHT22;5543;51.734;8.744;2022-09-02T00:29:01;15.10;77.30
10980;DHT22;5543;51.734;8.744;2022-09-02T00:31:30;15.10;77.40
10980;DHT22;5543;51.734;8.744;2022-09-02T00:33:59;15.10;77.60
10980;DHT22;5543;51.734;8.744;2022-09-02T00:36:27;15.00;78.10
10980;DHT22;5543;51.734;8.744;2022-09-02T00:38:57;15.00;78.40
10980;DHT22;5543;51.734;8.744;2022-09-02T00:41:27;14.90;78.70
10980;DHT22;5543;51.734;8.744;2022-09-02T00:43:58;14.90;79.30
10980;DHT22;5543;51.734;8.744;2022-09-02T00:46:29;14.80;78.70
10980;DHT22;5543;51.734;8.744;2022-09-02T00:49:00;14.80;79.50
10980;DHT22;5543;51.734;8.744;2022-09-02T00:51:33;14.80;80.00
10980;DHT22;5543;51.734;8.744;2022-09-02T00:54:05;14.70;80.40
10980;DHT22;5543;51.734;8.744;2022-09-02T00:56:36;14.70;80.50
10980;DHT22;5543;51.734;8.744;2022-09-02T00:59:06;14.60;80.30
10980;DHT22;5543;51.734;8.744;2022-09-02T01:01:35;14.60;80.30
10980;DHT22;5543;51.734;8.744;2022-09-02T01:04:03;14.50;80.60
10980;DHT22;5543;51.734;8.744;2022-09-02T01:06:32;14.50;81.00
10980;DHT22;5543;51.734;8.744;2022-09-02T01:09:04;14.50;81.00
10980;DHT22;5543;51.734;8.744;2022-09-02T01:11:42;14.50;81.70
10980;DHT22;5543;51.734;8.744;2022-09-02T01:14:10;14.40;82.20
10980;DHT22;5543;51.734;8.744;2022-09-02T01:16:41;14.40;81.80
10980;DHT22;5543;51.734;8.744;2022-09-02T01:19:19;14.40;81.80
10980;DHT22;5543;51.734;8.744;2022-09-02T01:21:51;14.40;81.90
10980;DHT22;5543;51.734;8.744;2022-09-02T01:24:21;14.30;81.80
10980;DHT22;5543;51.734;8.744;2022-09-02T01:26:52;14.40;82.00
10980;DHT22;5543;51.734;8.744;2022-09-02T01:29:21;14.40;81.60
10980;DHT22;5543;51.734;8.744;2022-09-02T01:31:50;14.40;82.60
10980;DHT22;5543;51.734;8.744;2022-09-02T01:34:19;14.40;81.30
10980;DHT22;5543;51.734;8.744;2022-09-02T01:36:47;14.40;81.30
10980;DHT22;5543;51.734;8.744;2022-09-02T01:39:17;14.40;81.80
10980;DHT22;5543;51.734;8.744;2022-09-02T01:41:45;14.40;81.50
10980;DHT22;5543;51.734;8.744;2022-09-02T01:44:13;14.40;82.20
10980;DHT22;5543;51.734;8.744;2022-09-02T01:46:43;14.40;82.30
10980;DHT22;5543;51.734;8.744;2022-09-02T01:49:13;14.40;82.00
10980;DHT22;5543;51.734;8.744;2022-09-02T01:51:41;14.40;82.80
10980;DHT22;5543;51.734;8.744;2022-09-02T01:54:09;14.40;83.30
10980;DHT22;5543;51.734;8.744;2022-09-02T01:56:39;14.40;83.40
10980;DHT22;5543;51.734;8.744;2022-09-02T01:59:07;14.30;83.90
10980;DHT22;5543;51.734;8.744;2022-09-02T02:01:37;14.30;84.00
10980;DHT22;5543;51.734;8.744;2022-09-02T02:04:05;14.30;83.60
10980;DHT22;5543;51.734;8.744;2022-09-02T02:06:39;14.30;84.10
10980;DHT22;5543;51.734;8.744;2022-09-02T02:09:08;14.30;84.20
10980;DHT22;5543;51.734;8.744;2022-09-02T02:11:39;14.20;83.60
10980;DHT22;5543;51.734;8.744;2022-09-02T02:14:07;14.20;84.10
10980;DHT22;5543;51.734;8.744;2022-09-02T02:16:35;14.20;84.30
10980;DHT22;5543;51.734;8.744;2022-09-02T02:19:03;14.20;84.30
10980;DHT22;5543;51.734;8.744;2022-09-02T02:21:32;14.20;84.50
10980;DHT22;5543;51.734;8.744;2022-09-02T02:24:00;14.20;85.10
10980;DHT22;5543;51.734;8.744;2022-09-02T02:26:29;14.20;85.30
10980;DHT22;5543;51.734;8.744;2022-09-02T02:28:58;14.10;85.00
10980;DHT22;5543;51.734;8.744;2022-09-02T02:31:27;14.10;85.40
10980;DHT22;5543;51.734;8.744;2022-09-02T02:33:55;14.10;85.70
10980;DHT22;5543;51.734;8.744;2022-09-02T02:36:23;14.10;85.90
10980;DHT22;5543;51.734;8.744;2022-09-02T02:38:51;14.10;86.20
10980;DHT22;5543;51.734;8.744;2022-09-02T02:41:19;14.00;86.50
10980;DHT22;5543;51.734;8.744;2022-09-02T02:43:48;13.90;86.30
10980;DHT22;5543;51.734;8.744;2022-09-02T02:46:17;13.90;86.80
10980;DHT22;5543;51.734;8.744;2022-09-02T02:48:45;13.90;86.90
10980;DHT22;5543;51.734;8.744;2022-09-02T02:51:14;13.90;87.00
10980;DHT22;5543;51.734;8.744;2022-09-02T02:53:42;13.90;87.10
10980;DHT22;5543;51.734;8.744;2022-09-02T02:56:10;13.80;87.40
10980;DHT22;5543;51.734;8.744;2022-09-02T02:58:38;13.80;86.80
10980;DHT22;5543;51.734;8.744;2022-09-02T03:01:06;13.90;86.40
10980;DHT22;5543;51.734;8.744;2022-09-02T03:03:36;13.90;87.30
10980;DHT22;5543;51.734;8.744;2022-09-02T03:06:05;13.90;87.50
10980;DHT22;5543;51.734;8.744;2022-09-02T03:08:33;13.90;88.00
10980;DHT22;5543;51.734;8.744;2022-09-02T03:11:02;13.80;87.70
10980;DHT22;5543;51.734;8.744;2022-09-02T03:13:34;13.90;88.10
10980;DHT22;5543;51.734;8.744;2022-09-02T03:16:03;13.80;88.10
10980;DHT22;5543;51.734;8.744;2022-09-02T03:18:32;13.80;88.90
10980;DHT22;5543;51.734;8.744;2022-09-02T03:21:05;13.80;89.70
10980;DHT22;5543;51.734;8.744;2022-09-02T03:23:34;13.70;89.80
10980;DHT22;5543;51.734;8.744;2022-09-02T03:26:07;13.70;89.80
10980;DHT22;5543;51.734;8.744;2022-09-02T03:28:35;13.70;90.30
10980;DHT22;5543;51.734;8.744;2022-09-02T03:31:05;13.60;90.30
10980;DHT22;5543;51.734;8.744;2022-09-02T03:33:33;13.60;90.50
10980;DHT22;5543;51.734;8.744;2022-09-02T03:36:03;13.60;90.50
10980;DHT22;5543;51.734;8.744;2022-09-02T03:38:31;13.60;90.60
10980;DHT22;5543;51.734;8.744;2022-09-02T03:40:59;13.60;91.00
10980;DHT22;5543;51.734;8.744;2022-09-02T03:43:27;13.60;91.10
10980;DHT22;5543;51.734;8.744;2022-09-02T03:45:55;13.60;91.10
10980;DHT22;5543;51.734;8.744;2022-09-02T03:48:24;13.60;91.20
10980;DHT22;5543;51.734;8.744;2022-09-02T03:50:52;13.60;91.30
10980;DHT22;5543;51.734;8.744;2022-09-02T03:53:21;13.60;91.20
10980;DHT22;5543;51.734;8.744;2022-09-02T03:55:50;13.60;91.60
10980;DHT22;5543;51.734;8.744;2022-09-02T03:58:19;13.50;91.80
10980;DHT22;5543;51.734;8.744;2022-09-02T04:00:49;13.50;92.10
10980;DHT22;5543;51.734;8.744;2022-09-02T04:03:18;13.50;92.40
10980;DHT22;5543;51.734;8.744;2022-09-02T04:05:47;13.50;92.20
10980;DHT22;5543;51.734;8.744;2022-09-02T04:08:16;13.40;92.40
10980;DHT22;5543;51.734;8.744;2022-09-02T04:10:46;13.40;92.40
10980;DHT22;5543;51.734;8.744;2022-09-02T04:13:14;13.40;92.90
10980;DHT22;5543;51.734;8.744;2022-09-02T04:15:44;13.40;93.10
10980;DHT22;5543;51.734;8.744;2022-09-02T04:21:39;13.30;94.70
10980;DHT22;5543;51.734;8.744;2022-09-02T04:24:09;13.20;95.30
10980;DHT22;5543;51.734;8.744;2022-09-02T04:26:39;13.20;95.80
10980;DHT22;5543;51.734;8.744;2022-09-02T04:29:11;13.10;96.00
10980;DHT22;5543;51.734;8.744;2022-09-02T04:31:39;13.10;96.10
10980;DHT22;5543;51.734;8.744;2022-09-02T04:34:07;13.10;96.30
10980;DHT22;5543;51.734;8.744;2022-09-02T04:36:35;13.10;96.50
10980;DHT22;5543;51.734;8.744;2022-09-02T04:39:03;13.10;96.50
10980;DHT22;5543;51.734;8.744;2022-09-02T04:41:35;13.10;96.20
10980;DHT22;5543;51.734;8.744;2022-09-02T04:44:05;13.10;96.60
10980;DHT22;5543;51.734;8.744;2022-09-02T04:46:33;13.10;96.10
10980;DHT22;5543;51.734;8.744;2022-09-02T04:49:02;13.10;96.30
10980;DHT22;5543;51.734;8.744;2022-09-02T04:51:30;13.20;96.50
10980;DHT22;5543;51.734;8.744;2022-09-02T04:53:59;13.10;96.10
10980;DHT22;5543;51.734;8.744;2022-09-02T04:56:29;13.20;95.50
10980;DHT22;5543;51.734;8.744;2022-09-02T04:58:58;13.30;95.50
10980;DHT22;5543;51.734;8.744;2022-09-02T05:01:31;13.40;95.90
10980;DHT22;5543;51.734;8.744;2022-09-02T05:04:00;13.50;95.80
10980;DHT22;5543;51.734;8.744;2022-09-02T05:06:29;13.50;95.70
10980;DHT22;5543;51.734;8.744;2022-09-02T05:08:58;13.60;95.50
10980;DHT22;5543;51.734;8.744;2022-09-02T05:11:29;13.60;95.80
10980;DHT22;5543;51.734;8.744;2022-09-02T05:14:02;13.70;95.60
10980;DHT22;5543;51.734;8.744;2022-09-02T05:16:33;13.70;95.80
10980;DHT22;5543;51.734;8.744;2022-09-02T05:19:03;13.70;95.10
10980;DHT22;5543;51.734;8.744;2022-09-02T05:21:32;13.80;95.80
10980;DHT22;5543;51.734;8.744;2022-09-02T05:24:00;13.80;95.70
10980;DHT22;5543;51.734;8.744;2022-09-02T05:26:28;13.90;95.80
10980;DHT22;5543;51.734;8.744;2022-09-02T05:28:57;13.90;96.00
10980;DHT22;5543;51.734;8.744;2022-09-02T05:31:26;14.00;96.30
10980;DHT22;5543;51.734;8.744;2022-09-02T05:33:56;14.00;96.30
10980;DHT22;5543;51.734;8.744;2022-09-02T05:36:24;14.00;96.10
10980;DHT22;5543;51.734;8.744;2022-09-02T05:38:52;14.10;94.80
10980;DHT22;5543;51.734;8.744;2022-09-02T05:41:21;14.20;95.30
10980;DHT22;5543;51.734;8.744;2022-09-02T05:43:50;14.20;95.10
10980;DHT22;5543;51.734;8.744;2022-09-02T05:46:21;14.30;94.30
10980;DHT22;5543;51.734;8.744;2022-09-02T05:48:50;14.40;94.60
10980;DHT22;5543;51.734;8.744;2022-09-02T05:51:41;14.50;94.30
10980;DHT22;5543;51.734;8.744;2022-09-02T05:54:12;14.60;94.10
10980;DHT22;5543;51.734;8.744;2022-09-02T05:56:41;14.70;94.50
10980;DHT22;5543;51.734;8.744;2022-09-02T05:59:11;14.80;94.30
10980;DHT22;5543;51.734;8.744;2022-09-02T06:01:40;14.90;93.90
10980;DHT22;5543;51.734;8.744;2022-09-02T06:04:08;15.10;94.70
10980;DHT22;5543;51.734;8.744;2022-09-02T06:06:36;15.10;94.40
10980;DHT22;5543;51.734;8.744;2022-09-02T06:09:08;15.20;94.40
10980;DHT22;5543;51.734;8.744;2022-09-02T06:11:38;15.30;94.90
10980;DHT22;5543;51.734;8.744;2022-09-02T06:14:11;15.40;95.30
10980;DHT22;5543;51.734;8.744;2022-09-02T06:16:41;15.50;95.30
10980;DHT22;5543;51.734;8.744;2022-09-02T06:19:09;15.50;95.40
10980;DHT22;5543;51.734;8.744;2022-09-02T06:21:43;15.60;94.10
10980;DHT22;5543;51.734;8.744;2022-09-02T06:24:13;15.70;94.30
10980;DHT22;5543;51.734;8.744;2022-09-02T06:26:42;15.80;94.20
10980;DHT22;5543;51.734;8.744;2022-09-02T06:29:10;15.80;93.30
10980;DHT22;5543;51.734;8.744;2022-09-02T06:31:40;15.90;93.00
10980;DHT22;5543;51.734;8.744;2022-09-02T06:34:09;16.00;93.80
10980;DHT22;5543;51.734;8.744;2022-09-02T06:36:40;16.10;93.50
10980;DHT22;5543;51.734;8.744;2022-09-02T06:39:11;16.10;93.60
10980;DHT22;5543;51.734;8.744;2022-09-02T06:41:42;16.10;93.00
10980;DHT22;5543;51.734;8.744;2022-09-02T06:44:12;16.20;92.50
10980;DHT22;5543;51.734;8.744;2022-09-02T06:46:43;16.30;92.50
10980;DHT22;5543;51.734;8.744;2022-09-02T06:49:12;16.30;93.00
10980;DHT22;5543;51.734;8.744;2022-09-02T06:51:43;16.40;93.00
10980;DHT22;5543;51.734;8.744;2022-09-02T06:54:13;16.50;92.10
10980;DHT22;5543;51.734;8.744;2022-09-02T06:56:44;16.50;92.40
10980;DHT22;5543;51.734;8.744;2022-09-02T06:59:16;16.70;92.50
10980;DHT22;5543;51.734;8.744;2022-09-02T07:01:44;16.80;92.00
10980;DHT22;5543;51.734;8.744;2022-09-02T07:04:13;16.80;90.90
10980;DHT22;5543;51.734;8.744;2022-09-02T07:06:59;16.90;91.80
10980;DHT22;5543;51.734;8.744;2022-09-02T07:09:27;17.00;91.20
10980;DHT22;5543;51.734;8.744;2022-09-02T07:12:00;17.10;91.80
10980;DHT22;5543;51.734;8.744;2022-09-02T07:14:34;17.20;92.00
10980;DHT22;5543;51.734;8.744;2022-09-02T07:17:03;17.20;91.40
10980;DHT22;5543;51.734;8.744;2022-09-02T07:19:31;17.30;90.80
10980;DHT22;5543;51.734;8.744;2022-09-02T07:22:01;17.40;91.10
10980;DHT22;5543;51.734;8.744;2022-09-02T07:24:29;17.50;90.30
10980;DHT22;5543;51.734;8.744;2022-09-02T07:26:59;17.60;91.10
10980;DHT22;5543;51.734;8.744;2022-09-02T07:29:27;17.60;89.80
10980;DHT22;5543;51.734;8.744;2022-09-02T07:31:55;17.70;88.70
10980;DHT22;5543;51.734;8.744;2022-09-02T07:34:24;17.80;90.30
10980;DHT22;5543;51.734;8.744;2022-09-02T07:36:52;17.90;89.30
10980;DHT22;5543;51.734;8.744;2022-09-02T07:39:26;18.00;90.50
10980;DHT22;5543;51.734;8.744;2022-09-02T07:41:54;18.10;87.60
10980;DHT22;5543;51.734;8.744;2022-09-02T07:44:23;18.20;90.20
10980;DHT22;5543;51.734;8.744;2022-09-02T07:46:51;18.30;88.70
10980;DHT22;5543;51.734;8.744;2022-09-02T07:49:20;18.60;90.50
10980;DHT22;5543;51.734;8.744;2022-09-02T07:51:50;18.70;88.60
10980;DHT22;5543;51.734;8.744;2022-09-02T07:54:21;18.90;87.40
10980;DHT22;5543;51.734;8.744;2022-09-02T07:56:50;19.00;86.70
10980;DHT22;5543;51.734;8.744;2022-09-02T07:59:19;19.30;88.70
10980;DHT22;5543;51.734;8.744;2022-09-02T08:01:50;19.50;84.70
10980;DHT22;5543;51.734;8.744;2022-09-02T08:04:19;19.80;86.90
10980;DHT22;5543;51.734;8.744;2022-09-02T08:06:49;20.10;84.90
10980;DHT22;5543;51.734;8.744;2022-09-02T08:09:19;20.40;82.40
10980;DHT22;5543;51.734;8.744;2022-09-02T08:11:49;20.90;84.00
10980;DHT22;5543;51.734;8.744;2022-09-02T08:14:20;21.20;81.00
10980;DHT22;5543;51.734;8.744;2022-09-02T08:16:53;21.60;81.80
10980;DHT22;5543;51.734;8.744;2022-09-02T08:19:22;22.20;80.20
10980;DHT22;5543;51.734;8.744;2022-09-02T08:21:51;23.00;80.00
10980;DHT22;5543;51.734;8.744;2022-09-02T08:24:19;23.60;72.70
10980;DHT22;5543;51.734;8.744;2022-09-02T08:26:47;24.40;74.20
10980;DHT22;5543;51.734;8.744;2022-09-02T08:29:15;24.90;69.00
10980;DHT22;5543;51.734;8.744;2022-09-02T08:31:43;25.10;70.60
10980;DHT22;5543;51.734;8.744;2022-09-02T08:34:15;25.70;72.20
10980;DHT22;5543;51.734;8.744;2022-09-02T08:36:44;26.10;64.90
10980;DHT22;5543;51.734;8.744;2022-09-02T08:39:22;25.80;62.90
10980;DHT22;5543;51.734;8.744;2022-09-02T08:41:55;25.40;65.30
10980;DHT22;5543;51.734;8.744;2022-09-02T08:44:34;25.10;64.00
10980;DHT22;5543;51.734;8.744;2022-09-02T08:47:05;25.00;67.30
10980;DHT22;5543;51.734;8.744;2022-09-02T08:49:40;25.20;68.30
10980;DHT22;5543;51.734;8.744;2022-09-02T08:52:16;25.50;64.30
10980;DHT22;5543;51.734;8.744;2022-09-02T08:54:56;26.00;67.20
10980;DHT22;5543;51.734;8.744;2022-09-02T08:57:25;26.50;61.40
10980;DHT22;5543;51.734;8.744;2022-09-02T08:59:56;27.10;65.80
10980;DHT22;5543;51.734;8.744;2022-09-02T09:02:32;27.70;59.60
10980;DHT22;5543;51.734;8.744;2022-09-02T09:05:17;27.90;62.70
10980;DHT22;5543;51.734;8.744;2022-09-02T09:07:57;28.30;59.30
10980;DHT22;5543;51.734;8.744;2022-09-02T09:10:33;28.70;56.70
10980;DHT22;5543;51.734;8.744;2022-09-02T09:13:17;29.10;56.30
10980;DHT22;5543;51.734;8.744;2022-09-02T09:15:51;29.60;56.80
10980;DHT22;5543;51.734;8.744;2022-09-02T09:18:32;30.00;54.60
10980;DHT22;5543;51.734;8.744;2022-09-02T09:21:06;29.60;52.50
10980;DHT22;5543;51.734;8.744;2022-09-02T09:23:38;29.70;53.50
10980;DHT22;5543;51.734;8.744;2022-09-02T09:26:09;29.80;55.80
10980;DHT22;5543;51.734;8.744;2022-09-02T09:28:42;30.10;51.50
10980;DHT22;5543;51.734;8.744;2022-09-02T09:31:13;30.20;51.90
10980;DHT22;5543;51.734;8.744;2022-09-02T09:33:59;30.30;50.80
10980;DHT22;5543;51.734;8.744;2022-09-02T09:36:48;30.70;53.30
10980;DHT22;5543;51.734;8.744;2022-09-02T09:39:22;30.80;49.80
10980;DHT22;5543;51.734;8.744;2022-09-02T09:41:51;30.70;48.50
10980;DHT22;5543;51.734;8.744;2022-09-02T09:44:50;30.50;49.30
10980;DHT22;5543;51.734;8.744;2022-09-02T09:47:19;30.50;50.70
10980;DHT22;5543;51.734;8.744;2022-09-02T09:49:49;30.80;49.70
10980;DHT22;5543;51.734;8.744;2022-09-02T09:52:24;30.80;49.10
10980;DHT22;5543;51.734;8.744;2022-09-02T09:55:20;30.90;48.90
10980;DHT22;5543;51.734;8.744;2022-09-02T09:57:51;31.40;49.10
10980;DHT22;5543;51.734;8.744;2022-09-02T10:00:24;31.60;48.50
10980;DHT22;5543;51.734;8.744;2022-09-02T10:02:55;32.30;46.60
10980;DHT22;5543;51.734;8.744;2022-09-02T10:05:31;32.50;46.50
10980;DHT22;5543;51.734;8.744;2022-09-02T10:08:03;32.40;44.30
10980;DHT22;5543;51.734;8.744;2022-09-02T10:10:55;32.10;45.20
10980;DHT22;5543;51.734;8.744;2022-09-02T10:13:27;31.70;47.20
10980;DHT22;5543;51.734;8.744;2022-09-02T10:18:53;32.50;45.80
10980;DHT22;5543;51.734;8.744;2022-09-02T10:21:32;32.60;44.60
10980;DHT22;5543;51.734;8.744;2022-09-02T10:24:13;32.90;45.90
10980;DHT22;5543;51.734;8.744;2022-09-02T10:26:47;32.70;44.20
10980;DHT22;5543;51.734;8.744;2022-09-02T10:29:39;32.80;46.00
10980;DHT22;5543;51.734;8.744;2022-09-02T10:32:23;33.10;43.20
10980;DHT22;5543;51.734;8.744;2022-09-02T10:35:00;33.10;44.50
10980;DHT22;5543;51.734;8.744;2022-09-02T10:37:37;33.30;44.80
10980;DHT22;5543;51.734;8.744;2022-09-02T10:40:12;33.60;44.20
10980;DHT22;5543;51.734;8.744;2022-09-02T10:42:47;33.50;42.80
10980;DHT22;5543;51.734;8.744;2022-09-02T10:45:23;33.60;42.70
10980;DHT22;5543;51.734;8.744;2022-09-02T10:47:59;33.30;41.80
10980;DHT22;5543;51.734;8.744;2022-09-02T10:50:37;33.00;41.30
10980;DHT22;5543;51.734;8.744;2022-09-02T10:53:17;32.20;41.50
10980;DHT22;5543;51.734;8.744;2022-09-02T10:55:53;32.10;44.00
10980;DHT22;5543;51.734;8.744;2022-09-02T10:58:35;32.30;43.90
10980;DHT22;5543;51.734;8.744;2022-09-02T11:01:06;32.30;44.00
10980;DHT22;5543;51.734;8.744;2022-09-02T11:03:40;32.30;42.90
10980;DHT22;5543;51.734;8.744;2022-09-02T11:06:14;32.10;42.00
10980;DHT22;5543;51.734;8.744;2022-09-02T11:08:47;31.80;42.00
10980;DHT22;5543;51.734;8.744;2022-09-02T11:11:20;31.80;41.90
10980;DHT22;5543;51.734;8.744;2022-09-02T11:13:58;31.40;44.00
10980;DHT22;5543;51.734;8.744;2022-09-02T11:16:31;30.90;42.40
10980;DHT22;5543;51.734;8.744;2022-09-02T11:19:07;30.20;43.00
10980;DHT22;5543;51.734;8.744;2022-09-02T11:21:46;29.80;42.30
10980;DHT22;5543;51.734;8.744;2022-09-02T11:24:20;29.30;44.60
10980;DHT22;5543;51.734;8.744;2022-09-02T11:26:55;28.90;45.60
10980;DHT22;5543;51.734;8.744;2022-09-02T11:29:34;28.60;45.40
10980;DHT22;5543;51.734;8.744;2022-09-02T11:32:12;28.30;45.70
10980;DHT22;5543;51.734;8.744;2022-09-02T11:34:44;28.10;45.00
10980;DHT22;5543;51.734;8.744;2022-09-02T11:37:28;27.60;43.00
10980;DHT22;5543;51.734;8.744;2022-09-02T11:40:00;27.20;44.20
10980;DHT22;5543;51.734;8.744;2022-09-02T11:43:11;27.00;44.70
10980;DHT22;5543;51.734;8.744;2022-09-02T11:49:27;26.40;43.90
10980;DHT22;5543;51.734;8.744;2022-09-02T11:52:16;25.90;43.30
10980;DHT22;5543;51.734;8.744;2022-09-02T11:54:48;25.40;44.90
10980;DHT22;5543;51.734;8.744;2022-09-02T11:57:22;25.40;47.10
10980;DHT22;5543;51.734;8.744;2022-09-02T12:00:12;25.50;47.10
10980;DHT22;5543;51.734;8.744;2022-09-02T12:02:58;25.70;47.40
10980;DHT22;5543;51.734;8.744;2022-09-02T12:06:03;26.00;51.60
10980;DHT22;5543;51.734;8.744;2022-09-02T12:08:58;25.90;47.80
10980;DHT22;5543;51.734;8.744;2022-09-02T12:21:02;24.80;50.80
10980;DHT22;5543;51.734;8.744;2022-09-02T12:24:11;24.60;50.80
10980;DHT22;5543;51.734;8.744;2022-09-02T12:27:09;24.50;52.10
10980;DHT22;5543;51.734;8.744;2022-09-02T12:29:38;24.30;52.00
10980;DHT22;5543;51.734;8.744;2022-09-02T12:32:08;24.30;52.20
10980;DHT22;5543;51.734;8.744;2022-09-02T12:34:55;24.30;52.20
10980;DHT22;5543;51.734;8.744;2022-09-02T12:37:52;24.40;53.40
10980;DHT22;5543;51.734;8.744;2022-09-02T12:40:38;24.40;54.40
10980;DHT22;5543;51.734;8.744;2022-09-02T12:43:21;24.40;53.00
10980;DHT22;5543;51.734;8.744;2022-09-02T12:45:54;24.40;53.90
10980;DHT22;5543;51.734;8.744;2022-09-02T12:48:33;24.50;54.20
10980;DHT22;5543;51.734;8.744;2022-09-02T12:51:09;24.40;54.20
10980;DHT22;5543;51.734;8.744;2022-09-02T12:53:39;24.30;53.80
10980;DHT22;5543;51.734;8.744;2022-09-02T12:56:19;24.20;54.60
10980;DHT22;5543;51.734;8.744;2022-09-02T12:58:51;24.30;53.10
10980;DHT22;5543;51.734;8.744;2022-09-02T13:01:36;24.50;54.70
10980;DHT22;5543;51.734;8.744;2022-09-02T13:04:23;24.80;51.10
10980;DHT22;5543;51.734;8.744;2022-09-02T13:07:35;24.90;52.20
10980;DHT22;5543;51.734;8.744;2022-09-02T13:10:25;25.20;50.30
10980;DHT22;5543;51.734;8.744;2022-09-02T13:13:11;25.30;49.70
10980;DHT22;5543;51.734;8.744;2022-09-02T13:15:59;25.70;49.00
10980;DHT22;5543;51.734;8.744;2022-09-02T13:18:59;26.30;48.70
10980;DHT22;5543;51.734;8.744;2022-09-02T13:25:08;27.30;47.90
10980;DHT22;5543;51.734;8.744;2022-09-02T13:28:19;27.40;46.70
10980;DHT22;5543;51.734;8.744;2022-09-02T13:31:07;27.40;46.50
10980;DHT22;5543;51.734;8.744;2022-09-02T13:33:38;27.20;47.30
10980;DHT22;5543;51.734;8.744;2022-09-02T13:36:08;26.80;46.10
10980;DHT22;5543;51.734;8.744;2022-09-02T13:38:37;26.30;46.40
10980;DHT22;5543;51.734;8.744;2022-09-02T13:41:06;25.80;47.60
10980;DHT22;5543;51.734;8.744;2022-09-02T13:43:35;25.50;49.60
10980;DHT22;5543;51.734;8.744;2022-09-02T13:46:03;25.20;51.60
10980;DHT22;5543;51.734;8.744;2022-09-02T13:48:33;25.00;51.30
10980;DHT22;5543;51.734;8.744;2022-09-02T13:51:10;25.00;52.60
10980;DHT22;5543;51.734;8.744;2022-09-02T13:53:41;25.00;52.50
10980;DHT22;5543;51.734;8.744;2022-09-02T13:56:29;25.10;49.70
10980;DHT22;5543;51.734;8.744;2022-09-02T13:58:57;25.30;49.20
10980;DHT22;5543;51.734;8.744;2022-09-02T14:01:28;25.50;48.50
10980;DHT22;5543;51.734;8.744;2022-09-02T14:03:58;25.60;48.20
10980;DHT22;5543;51.734;8.744;2022-09-02T14:06:28;25.80;47.00
10980;DHT22;5543;51.734;8.744;2022-09-02T14:09:00;25.80;49.70
10980;DHT22;5543;51.734;8.744;2022-09-02T14:11:37;26.00;46.50
10980;DHT22;5543;51.734;8.744;2022-09-02T14:14:05;26.10;48.90
10980;DHT22;5543;51.734;8.744;2022-09-02T14:16:35;26.00;47.60
10980;DHT22;5543;51.734;8.744;2022-09-02T14:19:09;26.00;49.60
10980;DHT22;5543;51.734;8.744;2022-09-02T14:21:47;26.10;49.70
10980;DHT22;5543;51.734;8.744;2022-09-02T14:24:20;26.60;48.90
10980;DHT22;5543;51.734;8.744;2022-09-02T14:26:52;26.80;48.80
10980;DHT22;5543;51.734;8.744;2022-09-02T14:29:21;27.10;48.50
10980;DHT22;5543;51.734;8.744;2022-09-02T14:32:08;27.30;47.50
10980;DHT22;5543;51.734;8.744;2022-09-02T14:34:39;27.00;47.30
10980;DHT22;5543;51.734;8.744;2022-09-02T14:37:19;26.70;46.90
10980;DHT22;5543;51.734;8.744;2022-09-02T14:40:02;26.70;49.70
10980;DHT22;5543;51.734;8.744;2022-09-02T14:42:42;26.80;48.70
10980;DHT22;5543;51.734;8.744;2022-09-02T14:45:11;26.70;45.70
10980;DHT22;5543;51.734;8.744;2022-09-02T14:47:40;27.00;48.20
10980;DHT22;5543;51.734;8.744;2022-09-02T14:50:09;27.10;46.10
10980;DHT22;5543;51.734;8.744;2022-09-02T14:52:46;27.20;47.60
10980;DHT22;5543;51.734;8.744;2022-09-02T14:55:44;27.00;46.20
10980;DHT22;5543;51.734;8.744;2022-09-02T14:58:14;26.60;48.50
10980;DHT22;5543;51.734;8.744;2022-09-02T15:00:45;26.50;49.90
10980;DHT22;5543;51.734;8.744;2022-09-02T15:03:14;26.60;47.20
10980;DHT22;5543;51.734;8.744;2022-09-02T15:05:43;26.70;47.20
10980;DHT22;5543;51.734;8.744;2022-09-02T15:08:12;26.50;46.40
10980;DHT22;5543;51.734;8.744;2022-09-02T15:10:42;26.50;47.90
10980;DHT22;5543;51.734;8.744;2022-09-02T15:13:12;26.60;48.60
10980;DHT22;5543;51.734;8.744;2022-09-02T15:15:43;26.50;45.80
10980;DHT22;5543;51.734;8.744;2022-09-02T15:18:13;26.30;47.60
10980;DHT22;5543;51.734;8.744;2022-09-02T15:20:41;26.10;48.10
10980;DHT22;5543;51.734;8.744;2022-09-02T15:23:09;26.10;47.10
10980;DHT22;5543;51.734;8.744;2022-09-02T15:25:39;25.90;46.50
10980;DHT22;5543;51.734;8.744;2022-09-02T15:28:07;25.90;46.10
10980;DHT22;5543;51.734;8.744;2022-09-02T15:30:36;25.80;47.70
10980;DHT22;5543;51.734;8.744;2022-09-02T15:33:08;25.50;47.80
10980;DHT22;5543;51.734;8.744;2022-09-02T15:35:43;25.30;49.80
10980;DHT22;5543;51.734;8.744;2022-09-02T15:38:12;25.00;50.90
10980;DHT22;5543;51.734;8.744;2022-09-02T15:40:40;24.80;49.70
10980;DHT22;5543;51.734;8.744;2022-09-02T15:43:09;24.80;49.90
10980;DHT22;5543;51.734;8.744;2022-09-02T15:45:38;24.60;50.40
10980;DHT22;5543;51.734;8.744;2022-09-02T15:48:12;24.60;51.40
10980;DHT22;5543;51.734;8.744;2022-09-02T15:50:41;24.60;50.50
10980;DHT22;5543;51.734;8.744;2022-09-02T15:53:13;24.60;49.50
10980;DHT22;5543;51.734;8.744;2022-09-02T15:55:41;24.60;49.10
10980;DHT22;5543;51.734;8.744;2022-09-02T15:58:10;24.60;49.40
10980;DHT22;5543;51.734;8.744;2022-09-02T16:00:38;24.80;50.80
10980;DHT22;5543;51.734;8.744;2022-09-02T16:03:09;24.80;51.80
10980;DHT22;5543;51.734;8.744;2022-09-02T16:05:39;24.90;50.80
10980;DHT22;5543;51.734;8.744;2022-09-02T16:08:09;24.90;51.10
10980;DHT22;5543;51.734;8.744;2022-09-02T16:10:37;24.80;50.90
10980;DHT22;5543;51.734;8.744;2022-09-02T16:13:06;24.70;50.60
10980;DHT22;5543;51.734;8.744;2022-09-02T16:15:34;24.50;51.20
10980;DHT22;5543;51.734;8.744;2022-09-02T16:18:02;24.20;50.80
10980;DHT22;5543;51.734;8.744;2022-09-02T16:20:30;23.90;51.00
10980;DHT22;5543;51.734;8.744;2022-09-02T16:22:59;23.70;51.40
10980;DHT22;5543;51.734;8.744;2022-09-02T16:25:28;23.60;51.10
10980;DHT22;5543;51.734;8.744;2022-09-02T16:27:56;23.60;52.80
10980;DHT22;5543;51.734;8.744;2022-09-02T16:30:24;23.50;52.10
10980;DHT22;5543;51.734;8.744;2022-09-02T16:32:52;23.50;52.70
10980;DHT22;5543;51.734;8.744;2022-09-02T16:35:20;23.40;53.00
10980;DHT22;5543;51.734;8.744;2022-09-02T16:37:49;23.50;51.00
10980;DHT22;5543;51.734;8.744;2022-09-02T16:40:20;23.50;51.90
10980;DHT22;5543;51.734;8.744;2022-09-02T16:42:48;23.60;52.00